sensor_id;sensor_type;location;lat;lon;timestamp;pressure;altitude;pressure_sealevel;temperature;humidity
66486;BME280;53303;47.476;8.084;2024-03-02T00:00:13;94159.28;;;19.21;44.60
66486;BME280;53303;47.476;8.084;2024-03-02T00:02:40;94151.94;;;19.24;44.53
66486;BME280;53303;47.476;8.084;2024-03-02T00:05:06;94161.50;;;19.23;44.63
66486;BME280;53303;47.476;8.084;2024-03-02T00:07:32;94163.31;;;19.20;44.47
66486;BME280;53303;47.476;8.084;2024-03-02T00:09:58;94176.09;;;19.24;44.45
66486;BME280;53303;47.476;8.084;2024-03-02T00:12:24;94188.41;;;19.23;44.53
66486;BME280;53303;47.476;8.084;2024-03-02T00:14:49;94181.41;;;19.21;44.58
66486;BME280;53303;47.476;8.084;2024-03-02T00:17:25;94183.94;;;19.19;44.67
66486;BME280;53303;47.476;8.084;2024-03-02T00:19:51;94185.44;;;19.20;44.68
66486;BME280;53303;47.476;8.084;2024-03-02T00:22:17;94183.94;;;19.19;44.92
66486;BME280;53303;47.476;8.084;2024-03-02T00:24:43;94180.03;;;19.15;44.75
66486;BME280;53303;47.476;8.084;2024-03-02T00:27:14;94185.22;;;19.18;44.73
66486;BME280;53303;47.476;8.084;2024-03-02T00:29:40;94188.00;;;19.18;44.80
66486;BME280;53303;47.476;8.084;2024-03-02T00:32:13;94184.78;;;19.14;44.87
66486;BME280;53303;47.476;8.084;2024-03-02T00:34:43;94186.50;;;19.17;44.68
66486;BME280;53303;47.476;8.084;2024-03-02T00:37:09;94188.31;;;19.15;44.67
66486;BME280;53303;47.476;8.084;2024-03-02T00:39:34;94193.09;;;19.14;44.89
66486;BME280;53303;47.476;8.084;2024-03-02T00:42:01;94185.34;;;19.13;44.95
66486;BME280;53303;47.476;8.084;2024-03-02T00:44:26;94185.34;;;19.13;44.92
66486;BME280;53303;47.476;8.084;2024-03-02T00:47:01;94185.34;;;19.13;44.81
66486;BME280;53303;47.476;8.084;2024-03-02T00:49:27;94189.06;;;19.15;44.76
66486;BME280;53303;47.476;8.084;2024-03-02T00:51:55;94180.75;;;19.15;44.83
66486;BME280;53303;47.476;8.084;2024-03-02T00:54:23;94171.28;;;19.11;44.82
66486;BME280;53303;47.476;8.084;2024-03-02T00:56:52;94176.81;;;19.11;44.73
66486;BME280;53303;47.476;8.084;2024-03-02T00:59:20;94183.84;;;19.12;44.90
66486;BME280;53303;47.476;8.084;2024-03-02T01:01:48;94194.91;;;19.12;44.78
66486;BME280;53303;47.476;8.084;2024-03-02T01:04:14;94187.88;;;19.11;44.66
66486;BME280;53303;47.476;8.084;2024-03-02T01:06:39;94189.16;;;19.10;44.91
66486;BME280;53303;47.476;8.084;2024-03-02T01:09:04;94195.09;;;19.14;44.98
66486;BME280;53303;47.476;8.084;2024-03-02T01:11:30;94190.09;;;19.12;44.76
66486;BME280;53303;47.476;8.084;2024-03-02T01:13:55;94190.63;;;19.11;44.80
66486;BME280;53303;47.476;8.084;2024-03-02T01:16:21;94178.31;;;19.12;44.95
66486;BME280;53303;47.476;8.084;2024-03-02T01:18:46;94166.84;;;19.08;44.87
66486;BME280;53303;47.476;8.084;2024-03-02T01:21:11;94179.38;;;19.09;44.81
66486;BME280;53303;47.476;8.084;2024-03-02T01:23:37;94172.88;;;19.06;44.82
66486;BME280;53303;47.476;8.084;2024-03-02T01:26:03;94182.13;;;19.09;44.84
66486;BME280;53303;47.476;8.084;2024-03-02T01:28:31;94188.63;;;19.11;44.88
66486;BME280;53303;47.476;8.084;2024-03-02T01:30:58;94194.47;;;19.08;44.78
66486;BME280;53303;47.476;8.084;2024-03-02T01:33:24;94188.19;;;19.07;44.85
66486;BME280;53303;47.476;8.084;2024-03-02T01:35:51;94190.63;;;19.11;44.78
66486;BME280;53303;47.476;8.084;2024-03-02T01:38:17;94177.88;;;19.08;44.67
66486;BME280;53303;47.476;8.084;2024-03-02T01:40:42;94179.38;;;19.09;44.64
66486;BME280;53303;47.476;8.084;2024-03-02T01:43:09;94169.81;;;19.10;44.79
66486;BME280;53303;47.476;8.084;2024-03-02T01:45:37;94172.38;;;19.08;44.92
66486;BME280;53303;47.476;8.084;2024-03-02T01:48:06;94172.56;;;19.10;44.78
66486;BME280;53303;47.476;8.084;2024-03-02T01:50:33;94164.59;;;19.06;44.80
66486;BME280;53303;47.476;8.084;2024-03-02T01:52:59;94169.81;;;19.10;44.83
66486;BME280;53303;47.476;8.084;2024-03-02T01:55:25;94161.31;;;19.08;44.92
66486;BME280;53303;47.476;8.084;2024-03-02T01:57:53;94167.56;;;19.08;44.92
66486;BME280;53303;47.476;8.084;2024-03-02T02:00:24;94168.31;;;19.09;44.53
66486;BME280;53303;47.476;8.084;2024-03-02T02:02:51;94178.06;;;18.96;45.13
66486;BME280;53303;47.476;8.084;2024-03-02T02:05:17;94173.72;;;19.01;45.24
66486;BME280;53303;47.476;8.084;2024-03-02T02:07:43;94168.94;;;19.01;44.81
66486;BME280;53303;47.476;8.084;2024-03-02T02:10:10;94162.88;;;19.03;45.01
66486;BME280;53303;47.476;8.084;2024-03-02T02:12:37;94164.38;;;19.04;44.97
66486;BME280;53303;47.476;8.084;2024-03-02T02:15:03;94167.69;;;19.02;44.83
66486;BME280;53303;47.476;8.084;2024-03-02T02:17:31;94159.59;;;19.05;44.76
66486;BME280;53303;47.476;8.084;2024-03-02T02:19:57;94165.84;;;19.05;45.03
66486;BME280;53303;47.476;8.084;2024-03-02T02:22:25;94157.88;;;19.01;44.97
66486;BME280;53303;47.476;8.084;2024-03-02T02:24:50;94153.13;;;19.02;44.64
66486;BME280;53303;47.476;8.084;2024-03-02T02:27:15;94152.56;;;19.03;44.91
66486;BME280;53303;47.476;8.084;2024-03-02T02:29:41;94149.28;;;19.05;44.92
66486;BME280;53303;47.476;8.084;2024-03-02T02:32:07;94147.59;;;19.02;45.09
66486;BME280;53303;47.476;8.084;2024-03-02T02:34:33;94154.59;;;19.03;44.99
66486;BME280;53303;47.476;8.084;2024-03-02T02:36:58;94147.28;;;19.06;44.93
66486;BME280;53303;47.476;8.084;2024-03-02T02:39:24;94148.84;;;19.01;44.90
66486;BME280;53303;47.476;8.084;2024-03-02T02:41:49;94150.56;;;19.04;45.30
66486;BME280;53303;47.476;8.084;2024-03-02T02:44:14;94145.56;;;19.02;44.92
66486;BME280;53303;47.476;8.084;2024-03-02T02:46:40;94149.06;;;19.03;44.91
66486;BME280;53303;47.476;8.084;2024-03-02T02:49:08;94140.34;;;18.99;45.02
66486;BME280;53303;47.476;8.084;2024-03-02T02:51:36;94138.13;;;18.97;44.88
66486;BME280;53303;47.476;8.084;2024-03-02T02:54:02;94142.78;;;19.02;45.08
66486;BME280;53303;47.476;8.084;2024-03-02T02:56:30;94140.56;;;19.01;44.88
66486;BME280;53303;47.476;8.084;2024-03-02T02:58:55;94139.63;;;18.98;44.94
66486;BME280;53303;47.476;8.084;2024-03-02T03:01:20;94145.56;;;19.02;45.05
66486;BME280;53303;47.476;8.084;2024-03-02T03:03:48;94142.06;;;19.02;44.98
66486;BME280;53303;47.476;8.084;2024-03-02T03:06:18;94139.63;;;18.98;44.87
66486;BME280;53303;47.476;8.084;2024-03-02T03:08:43;94133.00;;;19.01;44.94
66486;BME280;53303;47.476;8.084;2024-03-02T03:11:09;94140.56;;;19.01;44.99
66486;BME280;53303;47.476;8.084;2024-03-02T03:13:34;94131.31;;;18.98;44.98
66486;BME280;53303;47.476;8.084;2024-03-02T03:16:03;94128.31;;;18.96;45.10
66486;BME280;53303;47.476;8.084;2024-03-02T03:18:28;94135.56;;;18.99;45.04
66486;BME280;53303;47.476;8.084;2024-03-02T03:20:53;94144.59;;;19.00;45.02
66486;BME280;53303;47.476;8.084;2024-03-02T03:23:19;94132.69;;;18.92;45.12
66486;BME280;53303;47.476;8.084;2024-03-02T03:25:44;94127.06;;;18.97;45.45
66486;BME280;53303;47.476;8.084;2024-03-02T03:28:12;94123.75;;;18.99;45.16
66486;BME280;53303;47.476;8.084;2024-03-02T03:30:38;94139.63;;;18.98;44.93
66486;BME280;53303;47.476;8.084;2024-03-02T03:33:04;94131.09;;;18.96;45.04
66486;BME280;53303;47.476;8.084;2024-03-02T03:35:31;94126.13;;;18.95;44.80
66486;BME280;53303;47.476;8.084;2024-03-02T03:37:59;94115.78;;;18.95;44.98
66486;BME280;53303;47.476;8.084;2024-03-02T03:40:25;94131.31;;;18.98;44.96
66486;BME280;53303;47.476;8.084;2024-03-02T03:42:51;94122.16;;;18.90;45.00
66486;BME280;53303;47.476;8.084;2024-03-02T03:45:19;94134.41;;;18.95;45.05
66486;BME280;53303;47.476;8.084;2024-03-02T03:47:45;94133.31;;;18.98;44.93
66486;BME280;53303;47.476;8.084;2024-03-02T03:50:12;94136.63;;;18.96;45.05
66486;BME280;53303;47.476;8.084;2024-03-02T03:52:40;94123.56;;;18.97;44.91
66486;BME280;53303;47.476;8.084;2024-03-02T03:55:06;94145.66;;;18.97;45.13
66486;BME280;53303;47.476;8.084;2024-03-02T03:57:31;94135.47;;;18.92;45.06
66486;BME280;53303;47.476;8.084;2024-03-02T04:00:01;94140.88;;;18.97;45.07
66486;BME280;53303;47.476;8.084;2024-03-02T04:02:27;94140.13;;;18.97;44.85
66486;BME280;53303;47.476;8.084;2024-03-02T04:04:54;94138.44;;;18.94;45.09
66486;BME280;53303;47.476;8.084;2024-03-02T04:07:19;94142.13;;;18.96;45.03
66486;BME280;53303;47.476;8.084;2024-03-02T04:09:45;94140.25;;;18.91;45.02
66486;BME280;53303;47.476;8.084;2024-03-02T04:12:10;94137.47;;;18.91;45.05
66486;BME280;53303;47.476;8.084;2024-03-02T04:14:38;94147.25;;;18.92;45.01
66486;BME280;53303;47.476;8.084;2024-03-02T04:17:05;94154.50;;;18.95;45.07
66486;BME280;53303;47.476;8.084;2024-03-02T04:19:31;94152.78;;;18.92;44.90
66486;BME280;53303;47.476;8.084;2024-03-02T04:21:56;94153.31;;;18.91;45.01
66486;BME280;53303;47.476;8.084;2024-03-02T04:24:22;94144.81;;;18.89;45.05
66486;BME280;53303;47.476;8.084;2024-03-02T04:26:47;94159.28;;;18.95;45.12
66486;BME280;53303;47.476;8.084;2024-03-02T04:29:12;94145.00;;;18.91;45.28
66486;BME280;53303;47.476;8.084;2024-03-02T04:31:38;94153.31;;;18.91;45.13
66486;BME280;53303;47.476;8.084;2024-03-02T04:34:03;94142.69;;;18.95;44.95
66486;BME280;53303;47.476;8.084;2024-03-02T04:36:31;94138.00;;;18.90;45.13
66486;BME280;53303;47.476;8.084;2024-03-02T04:38:56;94142.47;;;18.93;44.73
66486;BME280;53303;47.476;8.084;2024-03-02T04:41:22;94129.72;;;18.90;45.04
66486;BME280;53303;47.476;8.084;2024-03-02T04:43:47;94112.34;;;18.76;45.04
66486;BME280;53303;47.476;8.084;2024-03-02T04:46:12;94133.22;;;18.90;44.98
66486;BME280;53303;47.476;8.084;2024-03-02T04:48:38;94128.75;;;18.87;44.99
66486;BME280;53303;47.476;8.084;2024-03-02T04:51:03;94129.94;;;18.92;45.06
66486;BME280;53303;47.476;8.084;2024-03-02T04:53:29;94132.69;;;18.92;45.20
66486;BME280;53303;47.476;8.084;2024-03-02T04:55:56;94140.25;;;18.91;45.09
66486;BME280;53303;47.476;8.084;2024-03-02T04:58:42;94128.53;;;18.85;45.07
66486;BME280;53303;47.476;8.084;2024-03-02T05:01:07;94133.22;;;18.90;45.22
66486;BME280;53303;47.476;8.084;2024-03-02T05:03:32;94133.75;;;18.89;45.26
66486;BME280;53303;47.476;8.084;2024-03-02T05:06:00;94131.19;;;18.91;45.05
66486;BME280;53303;47.476;8.084;2024-03-02T05:08:25;94127.69;;;18.90;45.25
66486;BME280;53303;47.476;8.084;2024-03-02T05:10:50;94126.19;;;18.89;45.12
66486;BME280;53303;47.476;8.084;2024-03-02T05:13:18;94128.97;;;18.89;45.18
66486;BME280;53303;47.476;8.084;2024-03-02T05:15:46;94117.47;;;18.85;45.13
66486;BME280;53303;47.476;8.084;2024-03-02T05:18:14;94127.28;;;18.86;45.05
66486;BME280;53303;47.476;8.084;2024-03-02T05:20:40;94122.28;;;18.85;45.39
66486;BME280;53303;47.476;8.084;2024-03-02T05:23:05;94123.53;;;18.83;45.40
66486;BME280;53303;47.476;8.084;2024-03-02T05:25:33;94132.28;;;18.88;45.30
66486;BME280;53303;47.476;8.084;2024-03-02T05:28:00;94137.81;;;18.88;45.11
66486;BME280;53303;47.476;8.084;2024-03-02T05:30:25;94137.03;;;18.87;45.37
66486;BME280;53303;47.476;8.084;2024-03-02T05:32:53;94127.81;;;18.85;45.10
66486;BME280;53303;47.476;8.084;2024-03-02T05:35:19;94135.78;;;18.88;45.15
66486;BME280;53303;47.476;8.084;2024-03-02T05:37:44;94138.53;;;18.88;45.16
66486;BME280;53303;47.476;8.084;2024-03-02T05:40:09;94133.84;;;18.83;45.17
66486;BME280;53303;47.476;8.084;2024-03-02T05:42:36;94126.59;;;18.80;45.26
66486;BME280;53303;47.476;8.084;2024-03-02T05:45:05;94135.56;;;18.86;45.10
66486;BME280;53303;47.476;8.084;2024-03-02T05:47:30;94135.56;;;18.86;44.96
66486;BME280;53303;47.476;8.084;2024-03-02T05:49:55;94127.03;;;18.84;45.14
66486;BME280;53303;47.476;8.084;2024-03-02T05:52:21;94125.31;;;18.81;45.13
66486;BME280;53303;47.476;8.084;2024-03-02T05:54:46;94127.81;;;18.85;45.03
66486;BME280;53303;47.476;8.084;2024-03-02T05:57:11;94133.13;;;18.82;45.39
66486;BME280;53303;47.476;8.084;2024-03-02T06:00:01;94119.78;;;18.81;45.23
66486;BME280;53303;47.476;8.084;2024-03-02T06:02:30;94120.78;;;18.83;45.04
66486;BME280;53303;47.476;8.084;2024-03-02T06:04:58;94115.97;;;18.84;45.08
66486;BME280;53303;47.476;8.084;2024-03-02T06:07:23;94112.56;;;18.78;45.01
66486;BME280;53303;47.476;8.084;2024-03-02T06:09:49;94120.78;;;18.83;45.26
66486;BME280;53303;47.476;8.084;2024-03-02T06:12:16;94115.53;;;18.80;45.16
66486;BME280;53303;47.476;8.084;2024-03-02T06:14:43;94124.81;;;18.82;45.14
66486;BME280;53303;47.476;8.084;2024-03-02T06:17:10;94127.31;;;18.80;45.29
66486;BME280;53303;47.476;8.084;2024-03-02T06:19:36;94128.31;;;18.83;45.24
66486;BME280;53303;47.476;8.084;2024-03-02T06:22:01;94129.59;;;18.82;45.39
66486;BME280;53303;47.476;8.084;2024-03-02T06:24:26;94118.28;;;18.80;45.55
66486;BME280;53303;47.476;8.084;2024-03-02T06:26:52;94134.16;;;18.79;45.11
66486;BME280;53303;47.476;8.084;2024-03-02T06:29:17;94135.88;;;18.82;45.26
66486;BME280;53303;47.476;8.084;2024-03-02T06:31:43;94131.63;;;18.81;45.55
66486;BME280;53303;47.476;8.084;2024-03-02T06:34:12;94132.34;;;18.82;45.36
66486;BME280;53303;47.476;8.084;2024-03-02T06:36:41;94133.63;;;18.81;45.22
66486;BME280;53303;47.476;8.084;2024-03-02T06:39:07;94135.94;;;18.77;45.39
66486;BME280;53303;47.476;8.084;2024-03-02T06:41:33;94135.41;;;18.78;45.41
66486;BME280;53303;47.476;8.084;2024-03-02T06:43:59;94154.97;;;18.80;45.22
66486;BME280;53303;47.476;8.084;2024-03-02T06:46:27;94142.75;;;18.76;45.30
66486;BME280;53303;47.476;8.084;2024-03-02T06:48:54;94159.75;;;18.80;45.29
66486;BME280;53303;47.476;8.084;2024-03-02T06:51:20;94148.28;;;18.76;45.28
66486;BME280;53303;47.476;8.084;2024-03-02T06:53:48;94153.81;;;18.76;45.32
66486;BME280;53303;47.476;8.084;2024-03-02T06:56:13;94165.06;;;18.78;45.17
66486;BME280;53303;47.476;8.084;2024-03-02T06:58:41;94170.81;;;18.80;45.33
66486;BME280;53303;47.476;8.084;2024-03-02T07:01:08;94169.53;;;18.81;44.99
66486;BME280;53303;47.476;8.084;2024-03-02T07:03:35;94172.31;;;18.81;45.40
66486;BME280;53303;47.476;8.084;2024-03-02T07:06:01;94159.53;;;18.78;45.23
66486;BME280;53303;47.476;8.084;2024-03-02T07:08:26;94165.28;;;18.80;45.11
66486;BME280;53303;47.476;8.084;2024-03-02T07:10:52;94170.06;;;18.79;45.35
66486;BME280;53303;47.476;8.084;2024-03-02T07:13:17;94168.88;;;18.75;45.32
66486;BME280;53303;47.476;8.084;2024-03-02T07:15:45;94176.13;;;18.78;45.43
66486;BME280;53303;47.476;8.084;2024-03-02T07:18:10;94167.41;;;18.74;45.41
66486;BME280;53303;47.476;8.084;2024-03-02T07:20:36;94170.06;;;18.79;45.20
66486;BME280;53303;47.476;8.084;2024-03-02T07:23:03;94176.34;;;18.80;45.22
66486;BME280;53303;47.476;8.084;2024-03-02T07:25:29;94164.13;;;18.75;45.12
66486;BME280;53303;47.476;8.084;2024-03-02T07:27:54;94161.13;;;18.73;44.77
66486;BME280;53303;47.476;8.084;2024-03-02T07:30:19;94170.81;;;18.80;44.64
66486;BME280;53303;47.476;8.084;2024-03-02T07:32:45;94164.00;;;18.81;44.33
66486;BME280;53303;47.476;8.084;2024-03-02T07:35:13;94163.34;;;18.75;43.97
66486;BME280;53303;47.476;8.084;2024-03-02T07:37:39;94175.06;;;18.81;43.67
66486;BME280;53303;47.476;8.084;2024-03-02T07:40:06;94168.03;;;18.80;43.31
66486;BME280;53303;47.476;8.084;2024-03-02T07:42:35;94172.31;;;18.81;42.95
66486;BME280;53303;47.476;8.084;2024-03-02T07:45:00;94175.06;;;18.81;42.96
66486;BME280;53303;47.476;8.084;2024-03-02T07:47:25;94170.31;;;18.81;42.85
66486;BME280;53303;47.476;8.084;2024-03-02T07:49:53;94171.03;;;18.82;42.84
66486;BME280;53303;47.476;8.084;2024-03-02T07:52:21;94166.31;;;18.77;42.80
66486;BME280;53303;47.476;8.084;2024-03-02T07:54:47;94160.28;;;18.78;42.78
66486;BME280;53303;47.476;8.084;2024-03-02T07:57:13;94169.78;;;18.83;42.64
66486;BME280;53303;47.476;8.084;2024-03-02T07:59:38;94154.75;;;18.78;42.83
66486;BME280;53303;47.476;8.084;2024-03-02T08:02:03;94165.00;;;18.83;42.90
66486;BME280;53303;47.476;8.084;2024-03-02T08:04:31;94161.50;;;18.83;43.00
66486;BME280;53303;47.476;8.084;2024-03-02T08:06:56;94159.47;;;18.83;42.85
66486;BME280;53303;47.476;8.084;2024-03-02T08:09:22;94170.00;;;18.85;43.00
66486;BME280;53303;47.476;8.084;2024-03-02T08:11:48;94156.16;;;18.85;43.01
66486;BME280;53303;47.476;8.084;2024-03-02T08:14:17;94154.38;;;18.88;42.96
66486;BME280;53303;47.476;8.084;2024-03-02T08:16:45;94151.16;;;18.83;42.92
66486;BME280;53303;47.476;8.084;2024-03-02T08:19:11;94151.63;;;18.88;43.01
66486;BME280;53303;47.476;8.084;2024-03-02T08:21:36;94144.59;;;18.87;43.16
66486;BME280;53303;47.476;8.084;2024-03-02T08:24:02;94136.63;;;18.83;43.14
66486;BME280;53303;47.476;8.084;2024-03-02T08:26:32;94147.03;;;18.90;43.11
66486;BME280;53303;47.476;8.084;2024-03-02T08:28:59;94138.09;;;18.84;42.97
66486;BME280;53303;47.476;8.084;2024-03-02T08:31:24;94144.38;;;18.85;43.08
66486;BME280;53303;47.476;8.084;2024-03-02T08:33:52;94147.03;;;18.90;43.14
66486;BME280;53303;47.476;8.084;2024-03-02T08:36:18;94138.53;;;18.88;43.29
66486;BME280;53303;47.476;8.084;2024-03-02T08:38:44;94142.56;;;18.87;43.22
66486;BME280;53303;47.476;8.084;2024-03-02T08:41:10;94134.28;;;18.87;42.94
66486;BME280;53303;47.476;8.084;2024-03-02T08:43:38;94138.53;;;18.88;43.26
66486;BME280;53303;47.476;8.084;2024-03-02T08:46:06;94140.47;;;18.93;43.44
66486;BME280;53303;47.476;8.084;2024-03-02T08:48:31;94134.94;;;18.93;43.31
66486;BME280;53303;47.476;8.084;2024-03-02T08:50:57;94135.25;;;18.90;43.26
66486;BME280;53303;47.476;8.084;2024-03-02T08:53:22;94133.44;;;18.92;43.39
66486;BME280;53303;47.476;8.084;2024-03-02T08:55:50;94118.00;;;18.83;43.41
66486;BME280;53303;47.476;8.084;2024-03-02T08:58:15;94125.88;;;18.93;43.57
66486;BME280;53303;47.476;8.084;2024-03-02T09:00:48;94136.84;;;18.98;43.35
66486;BME280;53303;47.476;8.084;2024-03-02T09:03:14;94114.94;;;18.87;43.34
66486;BME280;53303;47.476;8.084;2024-03-02T09:05:42;94123.34;;;18.95;43.49
66486;BME280;53303;47.476;8.084;2024-03-02T09:08:08;94127.59;;;18.96;43.56
66486;BME280;53303;47.476;8.084;2024-03-02T09:10:33;94131.84;;;18.97;43.50
66486;BME280;53303;47.476;8.084;2024-03-02T09:13:01;94126.75;;;19.01;43.04
66486;BME280;53303;47.476;8.084;2024-03-02T09:15:26;94115.78;;;18.95;43.44
66486;BME280;53303;47.476;8.084;2024-03-02T09:17:52;94123.25;;;19.00;43.48
66486;BME280;53303;47.476;8.084;2024-03-02T09:20:19;94119.50;;;18.98;43.45
66486;BME280;53303;47.476;8.084;2024-03-02T09:22:45;94119.94;;;19.02;43.58
66486;BME280;53303;47.476;8.084;2024-03-02T09:25:14;94112.72;;;18.99;43.78
66486;BME280;53303;47.476;8.084;2024-03-02T09:27:39;94103.13;;;19.00;43.66
66486;BME280;53303;47.476;8.084;2024-03-02T09:30:08;94115.34;;;19.05;43.50
66486;BME280;53303;47.476;8.084;2024-03-02T09:32:33;94107.59;;;19.03;43.65
66486;BME280;53303;47.476;8.084;2024-03-02T09:35:01;94102.06;;;19.03;43.60
66486;BME280;53303;47.476;8.084;2024-03-02T09:37:26;94092.06;;;19.00;43.58
66486;BME280;53303;47.476;8.084;2024-03-02T09:39:54;94110.78;;;19.07;43.58
66486;BME280;53303;47.476;8.084;2024-03-02T09:42:19;94090.81;;;19.01;43.47
66486;BME280;53303;47.476;8.084;2024-03-02T09:44:45;94095.69;;;19.08;43.65
66486;BME280;53303;47.476;8.084;2024-03-02T09:47:13;94064.75;;;18.96;43.62
66486;BME280;53303;47.476;8.084;2024-03-02T09:49:39;94073.91;;;19.05;43.35
66486;BME280;53303;47.476;8.084;2024-03-02T09:52:08;94064.34;;;19.06;43.76
66486;BME280;53303;47.476;8.084;2024-03-02T09:54:35;94061.00;;;19.07;43.74
66486;BME280;53303;47.476;8.084;2024-03-02T09:57:01;94054.13;;;19.00;43.55
66486;BME280;53303;47.476;8.084;2024-03-02T09:59:29;94051.25;;;19.06;43.76
66486;BME280;53303;47.476;8.084;2024-03-02T10:01:59;94058.16;;;19.13;43.71
66486;BME280;53303;47.476;8.084;2024-03-02T10:04:29;94052.63;;;19.13;43.71
66486;BME280;53303;47.476;8.084;2024-03-02T10:07:18;94055.16;;;19.11;43.87
66486;BME280;53303;47.476;8.084;2024-03-02T10:09:47;94049.44;;;19.09;43.94
66486;BME280;53303;47.476;8.084;2024-03-02T10:12:15;94059.63;;;19.14;43.53
66486;BME280;53303;47.476;8.084;2024-03-02T10:14:42;94054.31;;;19.16;43.82
66486;BME280;53303;47.476;8.084;2024-03-02T10:17:12;94056.34;;;19.15;43.86
66486;BME280;53303;47.476;8.084;2024-03-02T10:19:39;94032.53;;;18.99;43.84
66486;BME280;53303;47.476;8.084;2024-03-02T10:22:06;94047.09;;;19.13;43.96
66486;BME280;53303;47.476;8.084;2024-03-02T10:24:40;94057.84;;;19.16;44.07
66486;BME280;53303;47.476;8.084;2024-03-02T10:27:16;94061.88;;;19.15;43.95
66486;BME280;53303;47.476;8.084;2024-03-02T10:29:45;94053.97;;;19.19;43.95
66486;BME280;53303;47.476;8.084;2024-03-02T10:32:13;94044.22;;;19.18;43.96
66486;BME280;53303;47.476;8.084;2024-03-02T10:34:41;94041.97;;;19.17;43.91
66486;BME280;53303;47.476;8.084;2024-03-02T10:37:07;94049.00;;;19.18;43.95
66486;BME280;53303;47.476;8.084;2024-03-02T10:39:35;94049.53;;;19.16;43.85
66486;BME280;53303;47.476;8.084;2024-03-02T10:42:02;94046.00;;;19.16;44.11
66486;BME280;53303;47.476;8.084;2024-03-02T10:44:29;94050.88;;;19.23;44.00
66486;BME280;53303;47.476;8.084;2024-03-02T10:46:55;94042.72;;;19.17;43.90
66486;BME280;53303;47.476;8.084;2024-03-02T10:49:22;94049.22;;;19.20;43.93
66486;BME280;53303;47.476;8.084;2024-03-02T10:51:49;94041.13;;;19.22;43.99
66486;BME280;53303;47.476;8.084;2024-03-02T10:54:14;94039.09;;;19.23;44.04
66486;BME280;53303;47.476;8.084;2024-03-02T10:56:41;94042.81;;;19.25;44.02
66486;BME280;53303;47.476;8.084;2024-03-02T11:01:55;94024.84;;;19.18;44.12
66486;BME280;53303;47.476;8.084;2024-03-02T11:04:21;94018.59;;;19.18;44.01
66486;BME280;53303;47.476;8.084;2024-03-02T11:06:49;94034.19;;;19.29;44.07
66486;BME280;53303;47.476;8.084;2024-03-02T11:09:18;94026.63;;;19.29;44.10
66486;BME280;53303;47.476;8.084;2024-03-02T11:11:43;94024.72;;;19.24;44.42
66486;BME280;53303;47.476;8.084;2024-03-02T11:14:16;94029.59;;;19.31;43.95
66486;BME280;53303;47.476;8.084;2024-03-02T11:16:42;94016.31;;;19.30;44.32
66486;BME280;53303;47.476;8.084;2024-03-02T11:19:10;94023.53;;;19.33;44.46
66486;BME280;53303;47.476;8.084;2024-03-02T11:21:37;94013.00;;;19.31;44.12
66486;BME280;53303;47.476;8.084;2024-03-02T11:26:48;94020.56;;;19.31;44.25
66486;BME280;53303;47.476;8.084;2024-03-02T11:32:00;94011.94;;;19.34;44.17
66486;BME280;53303;47.476;8.084;2024-03-02T11:34:30;94003.84;;;19.36;44.09
66486;BME280;53303;47.476;8.084;2024-03-02T11:36:58;94016.38;;;19.37;44.23
66486;BME280;53303;47.476;8.084;2024-03-02T11:39:31;94003.97;;;19.31;44.14
66486;BME280;53303;47.476;8.084;2024-03-02T11:41:57;94008.31;;;19.39;44.24
66486;BME280;53303;47.476;8.084;2024-03-02T11:44:25;94009.06;;;19.40;44.11
66486;BME280;53303;47.476;8.084;2024-03-02T11:47:00;94015.31;;;19.40;44.20
66486;BME280;53303;47.476;8.084;2024-03-02T11:49:46;94011.63;;;19.38;44.17
66486;BME280;53303;47.476;8.084;2024-03-02T11:52:13;94002.56;;;19.37;44.08
66486;BME280;53303;47.476;8.084;2024-03-02T11:54:40;93994.69;;;19.42;44.07
66486;BME280;53303;47.476;8.084;2024-03-02T11:57:07;93999.88;;;19.45;44.18
66486;BME280;53303;47.476;8.084;2024-03-02T11:59:35;93983.63;;;19.42;44.34
66486;BME280;53303;47.476;8.084;2024-03-02T12:02:01;93984.03;;;19.46;44.17
66486;BME280;53303;47.476;8.084;2024-03-02T12:04:28;93978.16;;;19.49;44.06
66486;BME280;53303;47.476;8.084;2024-03-02T12:07:00;93965.06;;;19.50;44.30
66486;BME280;53303;47.476;8.084;2024-03-02T12:09:27;93954.53;;;19.48;44.16
66486;BME280;53303;47.476;8.084;2024-03-02T12:14:29;93945.34;;;19.53;44.13
66486;BME280;53303;47.476;8.084;2024-03-02T12:16:54;93947.19;;;19.51;44.11
66486;BME280;53303;47.476;8.084;2024-03-02T12:19:24;93937.28;;;19.55;44.07
66486;BME280;53303;47.476;8.084;2024-03-02T12:21:53;93940.25;;;19.57;44.07
66486;BME280;53303;47.476;8.084;2024-03-02T12:24:18;93937.69;;;19.59;44.04
66486;BME280;53303;47.476;8.084;2024-03-02T12:26:44;93928.09;;;19.60;44.18
66486;BME280;53303;47.476;8.084;2024-03-02T12:29:10;93926.63;;;19.59;44.14
66486;BME280;53303;47.476;8.084;2024-03-02T12:31:36;93905.34;;;19.54;44.12
66486;BME280;53303;47.476;8.084;2024-03-02T12:34:03;93918.91;;;19.66;44.12
66486;BME280;53303;47.476;8.084;2024-03-02T12:36:29;93911.72;;;19.63;44.00
66486;BME280;53303;47.476;8.084;2024-03-02T12:38:54;93926.13;;;19.69;44.07
66486;BME280;53303;47.476;8.084;2024-03-02T12:41:20;93927.06;;;19.71;44.21
66486;BME280;53303;47.476;8.084;2024-03-02T12:43:51;93922.81;;;19.70;43.88
66486;BME280;53303;47.476;8.084;2024-03-02T12:46:19;93912.50;;;19.71;44.33
66486;BME280;53303;47.476;8.084;2024-03-02T12:48:47;93924.94;;;19.77;44.08
66486;BME280;53303;47.476;8.084;2024-03-02T12:51:15;93907.94;;;19.73;44.18
66486;BME280;53303;47.476;8.084;2024-03-02T12:53:40;93903.34;;;19.76;44.01
66486;BME280;53303;47.476;8.084;2024-03-02T12:56:08;93904.50;;;19.81;43.99
66486;BME280;53303;47.476;8.084;2024-03-02T12:58:42;93888.97;;;19.77;44.04
66486;BME280;53303;47.476;8.084;2024-03-02T13:01:08;93892.53;;;19.86;43.98
66486;BME280;53303;47.476;8.084;2024-03-02T13:03:39;93890.69;;;19.88;43.95
66486;BME280;53303;47.476;8.084;2024-03-02T13:06:06;93887.00;;;19.86;43.85
66486;BME280;53303;47.476;8.084;2024-03-02T13:08:33;93888.31;;;19.92;44.09